sensor_id;sensor_type;location;lat;lon;timestamp;temperature;humidity
26952;DHT22;14507;52.418;13.398;2022-12-31T00:00:36;9.20;99.90
26952;DHT22;14507;52.418;13.398;2022-12-31T00:03:07;9.20;99.90
26952;DHT22;14507;52.418;13.398;2022-12-31T00:05:34;9.20;99.90
26952;DHT22;14507;52.418;13.398;2022-12-31T00:08:00;9.20;99.90
26952;DHT22;14507;52.418;13.398;2022-12-31T00:10:27;9.10;99.90
26952;DHT22;14507;52.418;13.398;2022-12-31T00:12:52;9.10;99.90
26952;DHT22;14507;52.418;13.398;2022-12-31T00:15:18;9.10;99.90
26952;DHT22;14507;52.418;13.398;2022-12-31T00:17:44;9.10;99.90
26952;DHT22;14507;52.418;13.398;2022-12-31T00:20:10;9.10;99.90
26952;DHT22;14507;52.418;13.398;2022-12-31T00:22:36;9.10;99.90
26952;DHT22;14507;52.418;13.398;2022-12-31T00:25:02;9.10;99.90
26952;DHT22;14507;52.418;13.398;2022-12-31T00:27:31;9.10;99.90
26952;DHT22;14507;52.418;13.398;2022-12-31T00:29:57;9.10;99.90
26952;DHT22;14507;52.418;13.398;2022-12-31T00:32:23;9.10;99.90
26952;DHT22;14507;52.418;13.398;2022-12-31T00:34:49;9.10;99.90
26952;DHT22;14507;52.418;13.398;2022-12-31T00:37:14;9.10;99.90
26952;DHT22;14507;52.418;13.398;2022-12-31T00:39:40;9.10;99.90
26952;DHT22;14507;52.418;13.398;2022-12-31T00:42:06;9.20;99.90
26952;DHT22;14507;52.418;13.398;2022-12-31T00:44:31;9.10;99.90
26952;DHT22;14507;52.418;13.398;2022-12-31T00:46:57;9.20;99.90
26952;DHT22;14507;52.418;13.398;2022-12-31T00:49:23;9.20;99.90
26952;DHT22;14507;52.418;13.398;2022-12-31T00:51:48;9.20;99.90
26952;DHT22;14507;52.418;13.398;2022-12-31T00:54:14;9.10;99.90
26952;DHT22;14507;52.418;13.398;2022-12-31T00:56:40;9.10;99.90
26952;DHT22;14507;52.418;13.398;2022-12-31T00:59:05;9.10;99.90
26952;DHT22;14507;52.418;13.398;2022-12-31T01:01:36;9.10;99.90
26952;DHT22;14507;52.418;13.398;2022-12-31T01:04:08;9.20;99.90
26952;DHT22;14507;52.418;13.398;2022-12-31T01:06:34;9.20;99.90
26952;DHT22;14507;52.418;13.398;2022-12-31T01:09:00;9.10;99.90
26952;DHT22;14507;52.418;13.398;2022-12-31T01:11:26;9.20;99.90
26952;DHT22;14507;52.418;13.398;2022-12-31T01:19:23;9.20;99.90
26952;DHT22;14507;52.418;13.398;2022-12-31T01:21:50;9.30;99.90
26952;DHT22;14507;52.418;13.398;2022-12-31T01:24:16;9.30;99.90
26952;DHT22;14507;52.418;13.398;2022-12-31T01:26:43;9.30;99.90
26952;DHT22;14507;52.418;13.398;2022-12-31T01:29:09;9.40;99.90
26952;DHT22;14507;52.418;13.398;2022-12-31T01:31:35;9.50;99.90
26952;DHT22;14507;52.418;13.398;2022-12-31T01:34:02;9.50;99.90
26952;DHT22;14507;52.418;13.398;2022-12-31T01:36:31;9.60;99.90
26952;DHT22;14507;52.418;13.398;2022-12-31T01:38:58;9.70;99.90
26952;DHT22;14507;52.418;13.398;2022-12-31T01:41:27;9.60;99.90
26952;DHT22;14507;52.418;13.398;2022-12-31T01:43:58;9.70;99.90
26952;DHT22;14507;52.418;13.398;2022-12-31T01:46:41;9.80;99.90
26952;DHT22;14507;52.418;13.398;2022-12-31T01:49:18;9.90;99.90
26952;DHT22;14507;52.418;13.398;2022-12-31T01:51:52;9.90;99.90
26952;DHT22;14507;52.418;13.398;2022-12-31T01:54:21;10.00;99.90
26952;DHT22;14507;52.418;13.398;2022-12-31T01:56:47;10.00;99.90
26952;DHT22;14507;52.418;13.398;2022-12-31T01:59:16;10.10;99.90
26952;DHT22;14507;52.418;13.398;2022-12-31T02:01:43;10.20;99.90
26952;DHT22;14507;52.418;13.398;2022-12-31T02:04:12;10.20;99.90
26952;DHT22;14507;52.418;13.398;2022-12-31T02:07:15;10.20;99.90
26952;DHT22;14507;52.418;13.398;2022-12-31T02:09:36;10.30;99.90
26952;DHT22;14507;52.418;13.398;2022-12-31T02:12:04;10.30;99.90
26952;DHT22;14507;52.418;13.398;2022-12-31T02:14:32;10.30;99.90
26952;DHT22;14507;52.418;13.398;2022-12-31T02:31:59;10.30;99.90
26952;DHT22;14507;52.418;13.398;2022-12-31T02:36:58;10.20;99.90
26952;DHT22;14507;52.418;13.398;2022-12-31T02:39:25;10.10;99.90
26952;DHT22;14507;52.418;13.398;2022-12-31T02:41:51;10.10;99.90
26952;DHT22;14507;52.418;13.398;2022-12-31T02:44:25;10.10;99.90
26952;DHT22;14507;52.418;13.398;2022-12-31T02:50:04;10.00;99.90
26952;DHT22;14507;52.418;13.398;2022-12-31T02:52:58;10.00;99.90
26952;DHT22;14507;52.418;13.398;2022-12-31T02:58:11;10.00;99.90
26952;DHT22;14507;52.418;13.398;2022-12-31T03:00:44;9.90;99.90
26952;DHT22;14507;52.418;13.398;2022-12-31T03:03:29;9.90;99.90
26952;DHT22;14507;52.418;13.398;2022-12-31T03:05:56;9.80;99.90
26952;DHT22;14507;52.418;13.398;2022-12-31T03:08:24;9.90;99.90
26952;DHT22;14507;52.418;13.398;2022-12-31T03:10:50;9.90;99.90
26952;DHT22;14507;52.418;13.398;2022-12-31T03:13:16;9.80;99.90
26952;DHT22;14507;52.418;13.398;2022-12-31T03:15:42;9.80;99.90
26952;DHT22;14507;52.418;13.398;2022-12-31T03:18:10;9.80;99.90
26952;DHT22;14507;52.418;13.398;2022-12-31T03:20:44;9.80;99.90
26952;DHT22;14507;52.418;13.398;2022-12-31T03:25:56;9.90;99.90
26952;DHT22;14507;52.418;13.398;2022-12-31T03:28:24;9.90;99.90
26952;DHT22;14507;52.418;13.398;2022-12-31T03:30:53;9.90;99.90
26952;DHT22;14507;52.418;13.398;2022-12-31T03:33:19;9.90;99.90
26952;DHT22;14507;52.418;13.398;2022-12-31T03:35:46;9.90;99.90
26952;DHT22;14507;52.418;13.398;2022-12-31T03:38:12;9.90;99.90
26952;DHT22;14507;52.418;13.398;2022-12-31T03:40:51;10.00;99.90
26952;DHT22;14507;52.418;13.398;2022-12-31T03:43:18;10.00;99.90
26952;DHT22;14507;52.418;13.398;2022-12-31T03:45:48;10.10;99.90
26952;DHT22;14507;52.418;13.398;2022-12-31T03:48:14;10.10;99.90
26952;DHT22;14507;52.418;13.398;2022-12-31T03:50:40;10.20;99.90
26952;DHT22;14507;52.418;13.398;2022-12-31T03:53:05;10.20;99.90
26952;DHT22;14507;52.418;13.398;2022-12-31T03:55:31;10.20;99.90
26952;DHT22;14507;52.418;13.398;2022-12-31T03:57:57;10.20;99.90
26952;DHT22;14507;52.418;13.398;2022-12-31T04:00:23;10.30;99.90
26952;DHT22;14507;52.418;13.398;2022-12-31T04:02:49;10.30;99.90
26952;DHT22;14507;52.418;13.398;2022-12-31T04:05:16;10.40;99.90
26952;DHT22;14507;52.418;13.398;2022-12-31T04:07:42;10.40;99.90
26952;DHT22;14507;52.418;13.398;2022-12-31T04:10:11;10.50;99.90
26952;DHT22;14507;52.418;13.398;2022-12-31T04:12:37;10.50;99.90
26952;DHT22;14507;52.418;13.398;2022-12-31T04:15:04;10.50;99.90
26952;DHT22;14507;52.418;13.398;2022-12-31T04:17:30;10.50;99.90
26952;DHT22;14507;52.418;13.398;2022-12-31T04:19:55;10.50;99.90
26952;DHT22;14507;52.418;13.398;2022-12-31T04:22:21;10.60;99.90
26952;DHT22;14507;52.418;13.398;2022-12-31T04:24:47;10.60;99.90
26952;DHT22;14507;52.418;13.398;2022-12-31T04:27:13;10.60;99.90
26952;DHT22;14507;52.418;13.398;2022-12-31T04:29:39;10.60;99.90
26952;DHT22;14507;52.418;13.398;2022-12-31T04:32:06;10.60;99.90
26952;DHT22;14507;52.418;13.398;2022-12-31T04:34:33;10.70;99.90
26952;DHT22;14507;52.418;13.398;2022-12-31T04:36:59;10.70;99.90
26952;DHT22;14507;52.418;13.398;2022-12-31T04:39:25;10.80;99.90
26952;DHT22;14507;52.418;13.398;2022-12-31T04:41:51;10.80;99.90
26952;DHT22;14507;52.418;13.398;2022-12-31T04:44:17;10.80;99.90
26952;DHT22;14507;52.418;13.398;2022-12-31T04:46:43;10.90;99.90
26952;DHT22;14507;52.418;13.398;2022-12-31T04:49:09;11.00;99.90
26952;DHT22;14507;52.418;13.398;2022-12-31T04:51:36;10.90;99.90
26952;DHT22;14507;52.418;13.398;2022-12-31T04:54:03;10.90;99.90
26952;DHT22;14507;52.418;13.398;2022-12-31T04:56:30;11.00;99.90
26952;DHT22;14507;52.418;13.398;2022-12-31T04:58:56;11.00;99.90
26952;DHT22;14507;52.418;13.398;2022-12-31T05:01:22;11.10;99.90
26952;DHT22;14507;52.418;13.398;2022-12-31T05:03:48;11.10;99.90
26952;DHT22;14507;52.418;13.398;2022-12-31T05:06:19;11.10;99.90
26952;DHT22;14507;52.418;13.398;2022-12-31T05:08:45;11.20;99.90
26952;DHT22;14507;52.418;13.398;2022-12-31T05:11:11;11.20;99.90
26952;DHT22;14507;52.418;13.398;2022-12-31T05:13:37;11.20;99.90
26952;DHT22;14507;52.418;13.398;2022-12-31T05:16:03;11.30;99.90
26952;DHT22;14507;52.418;13.398;2022-12-31T05:18:30;11.30;99.90
26952;DHT22;14507;52.418;13.398;2022-12-31T05:20:56;11.40;99.90
26952;DHT22;14507;52.418;13.398;2022-12-31T05:23:22;11.40;99.90
26952;DHT22;14507;52.418;13.398;2022-12-31T05:25:48;11.40;99.90
26952;DHT22;14507;52.418;13.398;2022-12-31T05:28:14;11.50;99.90
26952;DHT22;14507;52.418;13.398;2022-12-31T05:30:40;11.60;99.90
26952;DHT22;14507;52.418;13.398;2022-12-31T05:33:06;11.60;99.90
26952;DHT22;14507;52.418;13.398;2022-12-31T05:35:33;11.70;99.90
26952;DHT22;14507;52.418;13.398;2022-12-31T05:37:59;11.70;99.90
26952;DHT22;14507;52.418;13.398;2022-12-31T05:40:26;11.60;99.90
26952;DHT22;14507;52.418;13.398;2022-12-31T05:42:51;11.60;99.90
26952;DHT22;14507;52.418;13.398;2022-12-31T05:45:17;11.60;99.90
26952;DHT22;14507;52.418;13.398;2022-12-31T05:47:44;11.60;99.90
26952;DHT22;14507;52.418;13.398;2022-12-31T05:50:12;11.60;99.90
26952;DHT22;14507;52.418;13.398;2022-12-31T05:52:40;11.60;99.90
26952;DHT22;14507;52.418;13.398;2022-12-31T05:55:06;11.60;99.90
26952;DHT22;14507;52.418;13.398;2022-12-31T05:57:32;11.50;99.90
26952;DHT22;14507;52.418;13.398;2022-12-31T05:59:58;11.50;99.90
26952;DHT22;14507;52.418;13.398;2022-12-31T06:02:23;11.50;99.90
26952;DHT22;14507;52.418;13.398;2022-12-31T06:04:49;11.50;99.90
26952;DHT22;14507;52.418;13.398;2022-12-31T06:07:15;11.50;99.90
26952;DHT22;14507;52.418;13.398;2022-12-31T06:09:40;11.50;99.90
26952;DHT22;14507;52.418;13.398;2022-12-31T06:12:07;11.50;99.90
26952;DHT22;14507;52.418;13.398;2022-12-31T06:14:33;11.50;99.90
26952;DHT22;14507;52.418;13.398;2022-12-31T06:16:59;11.60;99.90
26952;DHT22;14507;52.418;13.398;2022-12-31T06:19:25;11.50;99.90
26952;DHT22;14507;52.418;13.398;2022-12-31T06:21:50;11.50;99.90
26952;DHT22;14507;52.418;13.398;2022-12-31T06:24:16;11.60;99.90
26952;DHT22;14507;52.418;13.398;2022-12-31T06:26:42;11.60;99.90
26952;DHT22;14507;52.418;13.398;2022-12-31T06:29:07;11.60;99.90
26952;DHT22;14507;52.418;13.398;2022-12-31T06:31:33;11.60;99.90
26952;DHT22;14507;52.418;13.398;2022-12-31T06:33:59;11.60;99.90
26952;DHT22;14507;52.418;13.398;2022-12-31T06:36:25;11.60;99.90
26952;DHT22;14507;52.418;13.398;2022-12-31T06:38:51;11.70;99.90
26952;DHT22;14507;52.418;13.398;2022-12-31T06:41:17;11.70;99.90
26952;DHT22;14507;52.418;13.398;2022-12-31T06:43:43;11.80;99.90
26952;DHT22;14507;52.418;13.398;2022-12-31T06:46:13;11.80;99.90
26952;DHT22;14507;52.418;13.398;2022-12-31T06:48:39;11.90;99.90
26952;DHT22;14507;52.418;13.398;2022-12-31T06:51:10;12.00;99.90
26952;DHT22;14507;52.418;13.398;2022-12-31T06:53:36;12.10;99.90
26952;DHT22;14507;52.418;13.398;2022-12-31T06:56:07;12.20;99.90
26952;DHT22;14507;52.418;13.398;2022-12-31T06:58:34;12.30;99.90
26952;DHT22;14507;52.418;13.398;2022-12-31T07:06:50;12.50;99.90
26952;DHT22;14507;52.418;13.398;2022-12-31T07:12:23;12.60;99.90
26952;DHT22;14507;52.418;13.398;2022-12-31T07:15:05;12.70;99.90
26952;DHT22;14507;52.418;13.398;2022-12-31T07:20:36;12.80;99.90
26952;DHT22;14507;52.418;13.398;2022-12-31T07:23:01;12.90;99.90
26952;DHT22;14507;52.418;13.398;2022-12-31T07:25:28;12.90;99.90
26952;DHT22;14507;52.418;13.398;2022-12-31T07:31:06;13.00;99.90
26952;DHT22;14507;52.418;13.398;2022-12-31T07:33:41;13.10;99.90
26952;DHT22;14507;52.418;13.398;2022-12-31T07:36:21;13.20;99.90
26952;DHT22;14507;52.418;13.398;2022-12-31T07:39:57;13.20;99.90
26952;DHT22;14507;52.418;13.398;2022-12-31T07:42:08;13.20;99.90
26952;DHT22;14507;52.418;13.398;2022-12-31T07:47:26;13.30;99.90
26952;DHT22;14507;52.418;13.398;2022-12-31T07:49:52;13.40;99.90
26952;DHT22;14507;52.418;13.398;2022-12-31T07:52:19;13.40;99.90
26952;DHT22;14507;52.418;13.398;2022-12-31T07:54:45;13.40;99.90
26952;DHT22;14507;52.418;13.398;2022-12-31T07:57:12;13.50;99.90
26952;DHT22;14507;52.418;13.398;2022-12-31T08:02:14;13.60;99.90
26952;DHT22;14507;52.418;13.398;2022-12-31T08:07:47;13.60;99.90
26952;DHT22;14507;52.418;13.398;2022-12-31T08:13:00;13.70;99.90
26952;DHT22;14507;52.418;13.398;2022-12-31T08:15:27;13.70;99.90
26952;DHT22;14507;52.418;13.398;2022-12-31T08:17:53;13.70;99.90
26952;DHT22;14507;52.418;13.398;2022-12-31T08:20:19;13.80;99.90
26952;DHT22;14507;52.418;13.398;2022-12-31T08:23:08;13.80;99.90
26952;DHT22;14507;52.418;13.398;2022-12-31T08:31:18;13.90;99.90
26952;DHT22;14507;52.418;13.398;2022-12-31T08:39:26;14.10;99.90
26952;DHT22;14507;52.418;13.398;2022-12-31T08:41:56;14.10;99.90
26952;DHT22;14507;52.418;13.398;2022-12-31T08:44:38;14.10;99.90
26952;DHT22;14507;52.418;13.398;2022-12-31T08:47:36;14.10;99.90
26952;DHT22;14507;52.418;13.398;2022-12-31T08:50:03;14.20;99.90
26952;DHT22;14507;52.418;13.398;2022-12-31T08:52:29;14.30;99.90
26952;DHT22;14507;52.418;13.398;2022-12-31T08:54:55;14.30;99.90
26952;DHT22;14507;52.418;13.398;2022-12-31T08:57:41;14.40;99.90
26952;DHT22;14507;52.418;13.398;2022-12-31T09:02:57;14.50;99.90
26952;DHT22;14507;52.418;13.398;2022-12-31T09:08:38;14.80;99.90
26952;DHT22;14507;52.418;13.398;2022-12-31T09:11:52;14.90;99.90
26952;DHT22;14507;52.418;13.398;2022-12-31T09:18:57;14.90;99.90
26952;DHT22;14507;52.418;13.398;2022-12-31T09:21:22;14.90;99.90
26952;DHT22;14507;52.418;13.398;2022-12-31T09:23:48;15.00;99.90
26952;DHT22;14507;52.418;13.398;2022-12-31T09:35:01;15.40;99.90
26952;DHT22;14507;52.418;13.398;2022-12-31T09:37:37;15.40;99.90
26952;DHT22;14507;52.418;13.398;2022-12-31T09:43:23;15.60;99.90
26952;DHT22;14507;52.418;13.398;2022-12-31T09:45:57;15.60;99.90
26952;DHT22;14507;52.418;13.398;2022-12-31T09:51:20;15.70;99.90
26952;DHT22;14507;52.418;13.398;2022-12-31T09:56:44;15.80;99.90
26952;DHT22;14507;52.418;13.398;2022-12-31T09:59:21;15.90;99.90
26952;DHT22;14507;52.418;13.398;2022-12-31T10:02:15;15.90;99.90
26952;DHT22;14507;52.418;13.398;2022-12-31T10:24:38;16.30;99.90
26952;DHT22;14507;52.418;13.398;2022-12-31T10:27:46;16.40;99.90
26952;DHT22;14507;52.418;13.398;2022-12-31T10:30:21;16.40;99.90
26952;DHT22;14507;52.418;13.398;2022-12-31T10:33:16;16.50;99.90
26952;DHT22;14507;52.418;13.398;2022-12-31T10:38:48;16.70;99.90
26952;DHT22;14507;52.418;13.398;2022-12-31T10:53:03;16.80;99.90
26952;DHT22;14507;52.418;13.398;2022-12-31T11:01:24;16.80;99.90
26952;DHT22;14507;52.418;13.398;2022-12-31T11:12:37;16.70;99.90
26952;DHT22;14507;52.418;13.398;2022-12-31T11:20:47;16.70;99.90
26952;DHT22;14507;52.418;13.398;2022-12-31T11:26:25;16.70;99.90
26952;DHT22;14507;52.418;13.398;2022-12-31T11:29:17;16.80;99.90
26952;DHT22;14507;52.418;13.398;2022-12-31T11:32:26;16.70;99.90
26952;DHT22;14507;52.418;13.398;2022-12-31T11:40:38;16.70;99.90
26952;DHT22;14507;52.418;13.398;2022-12-31T11:51:42;16.70;99.90
26952;DHT22;14507;52.418;13.398;2022-12-31T11:59:43;16.80;99.90
26952;DHT22;14507;52.418;13.398;2022-12-31T12:02:33;16.90;99.90
26952;DHT22;14507;52.418;13.398;2022-12-31T12:05:02;17.00;99.90
26952;DHT22;14507;52.418;13.398;2022-12-31T12:07:30;17.00;99.90
26952;DHT22;14507;52.418;13.398;2022-12-31T12:09:57;17.10;99.90
26952;DHT22;14507;52.418;13.398;2022-12-31T12:12:36;17.20;99.90
26952;DHT22;14507;52.418;13.398;2022-12-31T12:15:06;17.20;99.90
26952;DHT22;14507;52.418;13.398;2022-12-31T12:17:32;17.20;99.90
26952;DHT22;14507;52.418;13.398;2022-12-31T12:20:14;17.30;99.90
26952;DHT22;14507;52.418;13.398;2022-12-31T12:22:49;17.30;99.90
26952;DHT22;14507;52.418;13.398;2022-12-31T12:25:20;17.30;99.90
26952;DHT22;14507;52.418;13.398;2022-12-31T12:27:47;17.30;99.90
26952;DHT22;14507;52.418;13.398;2022-12-31T12:30:25;17.30;99.90
26952;DHT22;14507;52.418;13.398;2022-12-31T12:32:59;17.30;99.90
26952;DHT22;14507;52.418;13.398;2022-12-31T12:35:30;17.20;99.90
26952;DHT22;14507;52.418;13.398;2022-12-31T12:38:14;17.20;99.90
26952;DHT22;14507;52.418;13.398;2022-12-31T12:40:40;17.30;99.90
26952;DHT22;14507;52.418;13.398;2022-12-31T12:43:20;17.20;99.90
26952;DHT22;14507;52.418;13.398;2022-12-31T12:45:47;17.20;99.90
26952;DHT22;14507;52.418;13.398;2022-12-31T12:48:37;17.20;99.90
26952;DHT22;14507;52.418;13.398;2022-12-31T13:08:07;17.20;99.90
26952;DHT22;14507;52.418;13.398;2022-12-31T13:16:46;17.30;99.90
26952;DHT22;14507;52.418;13.398;2022-12-31T13:19:39;17.30;99.90
26952;DHT22;14507;52.418;13.398;2022-12-31T13:22:29;17.30;99.90
26952;DHT22;14507;52.418;13.398;2022-12-31T13:27:28;17.40;99.90
26952;DHT22;14507;52.418;13.398;2022-12-31T13:30:00;17.40;99.90
26952;DHT22;14507;52.418;13.398;2022-12-31T13:33:18;17.40;99.90
26952;DHT22;14507;52.418;13.398;2022-12-31T13:35:58;17.40;99.90
26952;DHT22;14507;52.418;13.398;2022-12-31T13:43:35;17.30;99.90
26952;DHT22;14507;52.418;13.398;2022-12-31T13:46:25;17.30;99.90
26952;DHT22;14507;52.418;13.398;2022-12-31T13:49:00;17.40;99.90
26952;DHT22;14507;52.418;13.398;2022-12-31T13:51:39;17.30;99.90
26952;DHT22;14507;52.418;13.398;2022-12-31T13:54:18;17.40;99.90
26952;DHT22;14507;52.418;13.398;2022-12-31T13:56:48;17.40;99.90
26952;DHT22;14507;52.418;13.398;2022-12-31T13:59:26;17.40;99.90
26952;DHT22;14507;52.418;13.398;2022-12-31T14:04:35;17.40;99.90
26952;DHT22;14507;52.418;13.398;2022-12-31T14:07:19;17.30;99.90
26952;DHT22;14507;52.418;13.398;2022-12-31T14:09:46;17.30;99.90
26952;DHT22;14507;52.418;13.398;2022-12-31T14:12:32;17.30;99.90
26952;DHT22;14507;52.418;13.398;2022-12-31T14:23:29;17.30;99.90
26952;DHT22;14507;52.418;13.398;2022-12-31T14:26:06;17.30;99.90
26952;DHT22;14507;52.418;13.398;2022-12-31T14:31:54;17.20;99.90
26952;DHT22;14507;52.418;13.398;2022-12-31T14:34:49;17.20;99.90
26952;DHT22;14507;52.418;13.398;2022-12-31T14:40:40;17.10;99.90
26952;DHT22;14507;52.418;13.398;2022-12-31T14:43:26;17.10;99.90
26952;DHT22;14507;52.418;13.398;2022-12-31T14:51:39;17.00;99.90
26952;DHT22;14507;52.418;13.398;2022-12-31T14:54:28;17.00;99.90
26952;DHT22;14507;52.418;13.398;2022-12-31T14:57:24;16.90;99.90
26952;DHT22;14507;52.418;13.398;2022-12-31T14:59:54;16.90;99.90
26952;DHT22;14507;52.418;13.398;2022-12-31T15:02:31;16.90;99.90
26952;DHT22;14507;52.418;13.398;2022-12-31T15:05:24;16.80;99.90
26952;DHT22;14507;52.418;13.398;2022-12-31T15:13:26;16.70;99.90
26952;DHT22;14507;52.418;13.398;2022-12-31T15:22:27;16.60;99.90
26952;DHT22;14507;52.418;13.398;2022-12-31T15:24:27;16.60;99.90
26952;DHT22;14507;52.418;13.398;2022-12-31T15:27:00;16.60;99.90
26952;DHT22;14507;52.418;13.398;2022-12-31T15:32:02;16.50;99.90
26952;DHT22;14507;52.418;13.398;2022-12-31T15:34:31;16.50;99.90
26952;DHT22;14507;52.418;13.398;2022-12-31T15:37:00;16.40;99.90
26952;DHT22;14507;52.418;13.398;2022-12-31T15:39:37;16.50;99.90
26952;DHT22;14507;52.418;13.398;2022-12-31T15:42:20;16.40;99.90
26952;DHT22;14507;52.418;13.398;2022-12-31T15:45:13;16.50;99.90
26952;DHT22;14507;52.418;13.398;2022-12-31T15:47:49;16.50;99.90
26952;DHT22;14507;52.418;13.398;2022-12-31T15:50:20;16.50;99.90
26952;DHT22;14507;52.418;13.398;2022-12-31T15:52:56;16.50;99.90
26952;DHT22;14507;52.418;13.398;2022-12-31T15:58:04;16.50;99.90
26952;DHT22;14507;52.418;13.398;2022-12-31T16:03:24;16.40;99.90
26952;DHT22;14507;52.418;13.398;2022-12-31T16:05:58;16.40;99.90
26952;DHT22;14507;52.418;13.398;2022-12-31T16:08:28;16.40;99.90
26952;DHT22;14507;52.418;13.398;2022-12-31T16:10:54;16.40;99.90
26952;DHT22;14507;52.418;13.398;2022-12-31T16:13:22;16.40;99.90
26952;DHT22;14507;52.418;13.398;2022-12-31T16:16:00;16.40;99.90
26952;DHT22;14507;52.418;13.398;2022-12-31T16:18:39;16.40;99.90
26952;DHT22;14507;52.418;13.398;2022-12-31T16:21:26;16.40;99.90
26952;DHT22;14507;52.418;13.398;2022-12-31T16:23:56;16.50;99.90
26952;DHT22;14507;52.418;13.398;2022-12-31T16:26:27;16.50;99.90
26952;DHT22;14507;52.418;13.398;2022-12-31T16:28:55;16.40;99.90
26952;DHT22;14507;52.418;13.398;2022-12-31T16:31:27;16.50;99.90
26952;DHT22;14507;52.418;13.398;2022-12-31T16:34:05;16.50;99.90
26952;DHT22;14507;52.418;13.398;2022-12-31T16:36:32;16.50;99.90
26952;DHT22;14507;52.418;13.398;2022-12-31T16:42:24;16.50;99.90
26952;DHT22;14507;52.418;13.398;2022-12-31T16:44:51;16.50;99.90
26952;DHT22;14507;52.418;13.398;2022-12-31T16:47:23;16.60;99.90
26952;DHT22;14507;52.418;13.398;2022-12-31T16:50:03;16.60;99.90
26952;DHT22;14507;52.418;13.398;2022-12-31T16:52:38;16.60;99.90
26952;DHT22;14507;52.418;13.398;2022-12-31T16:55:08;16.70;99.90
26952;DHT22;14507;52.418;13.398;2022-12-31T16:57:34;16.70;99.90
26952;DHT22;14507;52.418;13.398;2022-12-31T17:00:03;16.80;99.90
26952;DHT22;14507;52.418;13.398;2022-12-31T17:02:37;16.80;99.90
26952;DHT22;14507;52.418;13.398;2022-12-31T17:05:12;16.80;99.90
26952;DHT22;14507;52.418;13.398;2022-12-31T17:07:41;16.80;99.90
26952;DHT22;14507;52.418;13.398;2022-12-31T17:12:36;16.90;99.90
26952;DHT22;14507;52.418;13.398;2022-12-31T17:15:06;16.80;99.90
26952;DHT22;14507;52.418;13.398;2022-12-31T17:17:33;16.90;99.90
26952;DHT22;14507;52.418;13.398;2022-12-31T17:20:03;16.90;99.90
26952;DHT22;14507;52.418;13.398;2022-12-31T17:22:33;16.90;99.90
26952;DHT22;14507;52.418;13.398;2022-12-31T17:25:17;16.90;99.90
26952;DHT22;14507;52.418;13.398;2022-12-31T17:28:21;16.90;99.90
26952;DHT22;14507;52.418;13.398;2022-12-31T17:30:47;16.90;99.90
26952;DHT22;14507;52.418;13.398;2022-12-31T17:35:43;16.90;99.90
26952;DHT22;14507;52.418;13.398;2022-12-31T17:40:52;16.90;99.90
26952;DHT22;14507;52.418;13.398;2022-12-31T17:43:20;16.90;99.90
26952;DHT22;14507;52.418;13.398;2022-12-31T17:45:49;16.90;99.90
26952;DHT22;14507;52.418;13.398;2022-12-31T17:48:17;17.00;99.90
26952;DHT22;14507;52.418;13.398;2022-12-31T17:50:55;16.90;99.90
26952;DHT22;14507;52.418;13.398;2022-12-31T17:53:21;16.90;99.90
26952;DHT22;14507;52.418;13.398;2022-12-31T17:55:48;16.90;99.90
26952;DHT22;14507;52.418;13.398;2022-12-31T17:58:40;16.90;99.90
26952;DHT22;14507;52.418;13.398;2022-12-31T18:01:08;16.90;99.90
26952;DHT22;14507;52.418;13.398;2022-12-31T18:03:34;16.90;99.90
26952;DHT22;14507;52.418;13.398;2022-12-31T18:06:00;16.90;99.90
26952;DHT22;14507;52.418;13.398;2022-12-31T18:08:26;16.90;99.90
26952;DHT22;14507;52.418;13.398;2022-12-31T18:10:52;16.80;99.90
26952;DHT22;14507;52.418;13.398;2022-12-31T18:13:21;16.80;99.90
26952;DHT22;14507;52.418;13.398;2022-12-31T18:15:47;16.80;99.90
26952;DHT22;14507;52.418;13.398;2022-12-31T18:18:21;16.70;99.90
26952;DHT22;14507;52.418;13.398;2022-12-31T18:20:50;16.70;99.90
26952;DHT22;14507;52.418;13.398;2022-12-31T18:23:26;16.70;99.90
26952;DHT22;14507;52.418;13.398;2022-12-31T18:25:53;16.70;99.90
26952;DHT22;14507;52.418;13.398;2022-12-31T18:28:18;16.70;99.90
26952;DHT22;14507;52.418;13.398;2022-12-31T18:30:45;16.70;99.90
26952;DHT22;14507;52.418;13.398;2022-12-31T18:33:12;16.80;99.90
26952;DHT22;14507;52.418;13.398;2022-12-31T18:35:38;16.70;99.90
26952;DHT22;14507;52.418;13.398;2022-12-31T18:38:12;16.70;99.90
26952;DHT22;14507;52.418;13.398;2022-12-31T18:40:39;16.70;99.90
26952;DHT22;14507;52.418;13.398;2022-12-31T18:43:17;16.70;99.90
26952;DHT22;14507;52.418;13.398;2022-12-31T18:45:44;16.70;99.90
26952;DHT22;14507;52.418;13.398;2022-12-31T18:48:10;16.70;99.90
26952;DHT22;14507;52.418;13.398;2022-12-31T18:50:36;16.60;99.90
26952;DHT22;14507;52.418;13.398;2022-12-31T18:53:05;16.60;99.90
26952;DHT22;14507;52.418;13.398;2022-12-31T18:55:37;16.60;99.90
26952;DHT22;14507;52.418;13.398;2022-12-31T18:58:05;16.50;99.90
26952;DHT22;14507;52.418;13.398;2022-12-31T19:00:31;17.10;99.90
26952;DHT22;14507;52.418;13.398;2022-12-31T19:02:57;16.40;99.90
26952;DHT22;14507;52.418;13.398;2022-12-31T19:05:28;16.30;99.90
26952;DHT22;14507;52.418;13.398;2022-12-31T19:07:55;16.20;99.90
26952;DHT22;14507;52.418;13.398;2022-12-31T19:10:21;16.20;99.90
26952;DHT22;14507;52.418;13.398;2022-12-31T19:12:50;16.10;99.90
26952;DHT22;14507;52.418;13.398;2022-12-31T19:17:50;16.10;99.90
26952;DHT22;14507;52.418;13.398;2022-12-31T19:20:16;16.00;99.90
26952;DHT22;14507;52.418;13.398;2022-12-31T19:22:42;16.00;99.90
26952;DHT22;14507;52.418;13.398;2022-12-31T19:25:18;16.00;99.90
26952;DHT22;14507;52.418;13.398;2022-12-31T19:27:45;16.00;99.90
26952;DHT22;14507;52.418;13.398;2022-12-31T19:30:31;16.00;99.90
26952;DHT22;14507;52.418;13.398;2022-12-31T19:32:57;16.00;99.90
26952;DHT22;14507;52.418;13.398;2022-12-31T19:35:24;15.90;99.90
26952;DHT22;14507;52.418;13.398;2022-12-31T19:37:51;15.90;99.90
26952;DHT22;14507;52.418;13.398;2022-12-31T19:40:20;15.90;99.90
26952;DHT22;14507;52.418;13.398;2022-12-31T19:42:47;15.90;99.90
26952;DHT22;14507;52.418;13.398;2022-12-31T19:45:18;15.90;99.90
26952;DHT22;14507;52.418;13.398;2022-12-31T19:47:45;15.90;99.90
26952;DHT22;14507;52.418;13.398;2022-12-31T19:50:17;15.90;99.90
26952;DHT22;14507;52.418;13.398;2022-12-31T19:52:44;15.90;99.90
26952;DHT22;14507;52.418;13.398;2022-12-31T19:55:13;15.90;99.90
26952;DHT22;14507;52.418;13.398;2022-12-31T19:57:40;15.80;99.90
26952;DHT22;14507;52.418;13.398;2022-12-31T20:00:07;15.80;99.90
26952;DHT22;14507;52.418;13.398;2022-12-31T20:02:34;15.80;99.90